sensor_id;sensor_type;location;lat;lon;timestamp;P1;durP1;ratioP1;P2;durP2;ratioP2
26953;SDS011;14508;50.924;11.600;2023-01-08T00:01:28;9.40;;;3.75;;
26953;SDS011;14508;50.924;11.600;2023-01-08T00:03:56;7.38;;;3.90;;
26953;SDS011;14508;50.924;11.600;2023-01-08T00:06:24;5.75;;;3.95;;
26953;SDS011;14508;50.924;11.600;2023-01-08T00:08:52;6.82;;;4.07;;
26953;SDS011;14508;50.924;11.600;2023-01-08T00:11:21;7.38;;;4.32;;
26953;SDS011;14508;50.924;11.600;2023-01-08T00:13:49;6.65;;;3.78;;
26953;SDS011;14508;50.924;11.600;2023-01-08T00:16:17;6.07;;;4.20;;
26953;SDS011;14508;50.924;11.600;2023-01-08T00:18:46;6.70;;;3.35;;
26953;SDS011;14508;50.924;11.600;2023-01-08T00:21:14;7.13;;;3.67;;
26953;SDS011;14508;50.924;11.600;2023-01-08T00:23:42;9.82;;;3.78;;
26953;SDS011;14508;50.924;11.600;2023-01-08T00:26:10;7.43;;;3.40;;
26953;SDS011;14508;50.924;11.600;2023-01-08T00:28:40;4.45;;;3.17;;
26953;SDS011;14508;50.924;11.600;2023-01-08T00:31:08;5.30;;;3.05;;
26953;SDS011;14508;50.924;11.600;2023-01-08T00:33:38;6.30;;;3.60;;
26953;SDS011;14508;50.924;11.600;2023-01-08T00:36:07;6.60;;;3.33;;
26953;SDS011;14508;50.924;11.600;2023-01-08T00:38:35;6.78;;;2.78;;
26953;SDS011;14508;50.924;11.600;2023-01-08T00:41:04;5.45;;;3.45;;
26953;SDS011;14508;50.924;11.600;2023-01-08T00:43:32;6.72;;;3.63;;
26953;SDS011;14508;50.924;11.600;2023-01-08T00:46:01;7.15;;;3.60;;
26953;SDS011;14508;50.924;11.600;2023-01-08T00:48:29;6.95;;;3.55;;
26953;SDS011;14508;50.924;11.600;2023-01-08T00:51:00;5.43;;;3.40;;
26953;SDS011;14508;50.924;11.600;2023-01-08T00:53:28;6.32;;;3.17;;
26953;SDS011;14508;50.924;11.600;2023-01-08T00:55:59;6.22;;;3.15;;
26953;SDS011;14508;50.924;11.600;2023-01-08T00:58:27;4.75;;;3.00;;
26953;SDS011;14508;50.924;11.600;2023-01-08T01:00:56;5.57;;;3.38;;
26953;SDS011;14508;50.924;11.600;2023-01-08T01:03:25;7.28;;;3.45;;
26953;SDS011;14508;50.924;11.600;2023-01-08T01:06:00;5.97;;;3.17;;
26953;SDS011;14508;50.924;11.600;2023-01-08T01:08:28;5.05;;;3.47;;
26953;SDS011;14508;50.924;11.600;2023-01-08T01:10:56;4.32;;;3.28;;
26953;SDS011;14508;50.924;11.600;2023-01-08T01:13:23;7.50;;;3.35;;
26953;SDS011;14508;50.924;11.600;2023-01-08T01:15:57;7.53;;;3.70;;
26953;SDS011;14508;50.924;11.600;2023-01-08T01:18:27;5.93;;;3.28;;
26953;SDS011;14508;50.924;11.600;2023-01-08T01:20:56;5.57;;;3.20;;
26953;SDS011;14508;50.924;11.600;2023-01-08T01:23:24;5.45;;;3.47;;
26953;SDS011;14508;50.924;11.600;2023-01-08T01:25:52;7.30;;;3.35;;
26953;SDS011;14508;50.924;11.600;2023-01-08T01:28:20;7.03;;;3.75;;
26953;SDS011;14508;50.924;11.600;2023-01-08T01:30:52;7.15;;;3.63;;
26953;SDS011;14508;50.924;11.600;2023-01-08T01:33:21;5.97;;;3.85;;
26953;SDS011;14508;50.924;11.600;2023-01-08T01:35:58;7.63;;;3.28;;
26953;SDS011;14508;50.924;11.600;2023-01-08T01:38:27;9.23;;;3.53;;
26953;SDS011;14508;50.924;11.600;2023-01-08T01:40:55;6.57;;;3.60;;
26953;SDS011;14508;50.924;11.600;2023-01-08T01:43:36;5.68;;;2.83;;
26953;SDS011;14508;50.924;11.600;2023-01-08T01:46:14;7.35;;;3.53;;
26953;SDS011;14508;50.924;11.600;2023-01-08T01:48:46;5.50;;;3.55;;
26953;SDS011;14508;50.924;11.600;2023-01-08T01:51:18;6.60;;;3.97;;
26953;SDS011;14508;50.924;11.600;2023-01-08T01:53:47;5.68;;;3.47;;
26953;SDS011;14508;50.924;11.600;2023-01-08T01:56:16;6.38;;;3.58;;
26953;SDS011;14508;50.924;11.600;2023-01-08T01:58:44;7.80;;;3.65;;
26953;SDS011;14508;50.924;11.600;2023-01-08T02:01:11;7.60;;;3.63;;
26953;SDS011;14508;50.924;11.600;2023-01-08T02:03:40;6.18;;;3.25;;
26953;SDS011;14508;50.924;11.600;2023-01-08T02:06:11;7.63;;;3.25;;
26953;SDS011;14508;50.924;11.600;2023-01-08T02:08:50;5.55;;;3.03;;
26953;SDS011;14508;50.924;11.600;2023-01-08T02:11:24;6.43;;;3.78;;
26953;SDS011;14508;50.924;11.600;2023-01-08T02:13:59;6.72;;;3.03;;
26953;SDS011;14508;50.924;11.600;2023-01-08T02:16:33;7.65;;;3.40;;
26953;SDS011;14508;50.924;11.600;2023-01-08T02:19:11;4.30;;;3.25;;
26953;SDS011;14508;50.924;11.600;2023-01-08T02:21:48;6.10;;;3.33;;
26953;SDS011;14508;50.924;11.600;2023-01-08T02:24:28;6.53;;;3.97;;
26953;SDS011;14508;50.924;11.600;2023-01-08T02:27:08;6.45;;;3.20;;
26953;SDS011;14508;50.924;11.600;2023-01-08T02:29:39;6.78;;;3.67;;
26953;SDS011;14508;50.924;11.600;2023-01-08T02:32:07;7.72;;;2.97;;
26953;SDS011;14508;50.924;11.600;2023-01-08T02:34:35;7.50;;;4.32;;
26953;SDS011;14508;50.924;11.600;2023-01-08T02:37:03;6.18;;;3.70;;
26953;SDS011;14508;50.924;11.600;2023-01-08T02:39:36;6.70;;;3.60;;
26953;SDS011;14508;50.924;11.600;2023-01-08T02:42:16;6.07;;;3.45;;
26953;SDS011;14508;50.924;11.600;2023-01-08T02:44:53;6.30;;;3.60;;
26953;SDS011;14508;50.924;11.600;2023-01-08T02:47:24;8.05;;;3.72;;
26953;SDS011;14508;50.924;11.600;2023-01-08T02:49:59;6.15;;;3.97;;
26953;SDS011;14508;50.924;11.600;2023-01-08T02:52:40;7.50;;;4.18;;
26953;SDS011;14508;50.924;11.600;2023-01-08T02:55:13;7.43;;;4.13;;
26953;SDS011;14508;50.924;11.600;2023-01-08T02:57:44;7.78;;;4.22;;
26953;SDS011;14508;50.924;11.600;2023-01-08T03:00:13;7.32;;;4.88;;
26953;SDS011;14508;50.924;11.600;2023-01-08T03:02:41;7.72;;;4.75;;
26953;SDS011;14508;50.924;11.600;2023-01-08T03:05:12;5.55;;;3.88;;
26953;SDS011;14508;50.924;11.600;2023-01-08T03:07:45;8.45;;;4.03;;
26953;SDS011;14508;50.924;11.600;2023-01-08T03:10:13;8.55;;;5.10;;
26953;SDS011;14508;50.924;11.600;2023-01-08T03:12:46;8.05;;;4.70;;
26953;SDS011;14508;50.924;11.600;2023-01-08T03:15:22;8.48;;;3.60;;
26953;SDS011;14508;50.924;11.600;2023-01-08T03:17:56;5.25;;;3.33;;
26953;SDS011;14508;50.924;11.600;2023-01-08T03:20:28;5.60;;;3.30;;
26953;SDS011;14508;50.924;11.600;2023-01-08T03:22:58;6.15;;;3.85;;
26953;SDS011;14508;50.924;11.600;2023-01-08T03:25:28;6.03;;;3.63;;
26953;SDS011;14508;50.924;11.600;2023-01-08T03:27:58;5.45;;;3.50;;
26953;SDS011;14508;50.924;11.600;2023-01-08T03:30:29;6.78;;;3.70;;
26953;SDS011;14508;50.924;11.600;2023-01-08T03:32:58;8.07;;;4.60;;
26953;SDS011;14508;50.924;11.600;2023-01-08T03:35:27;6.22;;;4.30;;
26953;SDS011;14508;50.924;11.600;2023-01-08T03:37:57;7.70;;;3.85;;
26953;SDS011;14508;50.924;11.600;2023-01-08T03:40:33;8.27;;;3.85;;
26953;SDS011;14508;50.924;11.600;2023-01-08T03:43:04;7.35;;;4.38;;
26953;SDS011;14508;50.924;11.600;2023-01-08T03:45:32;8.73;;;4.28;;
26953;SDS011;14508;50.924;11.600;2023-01-08T03:48:03;7.22;;;4.05;;
26953;SDS011;14508;50.924;11.600;2023-01-08T03:50:32;6.47;;;3.92;;
26953;SDS011;14508;50.924;11.600;2023-01-08T03:53:00;5.55;;;3.78;;
26953;SDS011;14508;50.924;11.600;2023-01-08T03:55:28;6.70;;;3.85;;
26953;SDS011;14508;50.924;11.600;2023-01-08T03:57:56;10.25;;;4.00;;
26953;SDS011;14508;50.924;11.600;2023-01-08T04:00:25;5.95;;;3.53;;
26953;SDS011;14508;50.924;11.600;2023-01-08T04:02:53;6.18;;;3.83;;
26953;SDS011;14508;50.924;11.600;2023-01-08T04:05:21;7.28;;;3.65;;
26953;SDS011;14508;50.924;11.600;2023-01-08T04:07:49;6.82;;;3.80;;
26953;SDS011;14508;50.924;11.600;2023-01-08T04:10:16;10.30;;;3.97;;
26953;SDS011;14508;50.924;11.600;2023-01-08T04:12:44;6.13;;;3.75;;
26953;SDS011;14508;50.924;11.600;2023-01-08T04:15:12;5.72;;;3.85;;
26953;SDS011;14508;50.924;11.600;2023-01-08T04:17:41;11.48;;;3.75;;
26953;SDS011;14508;50.924;11.600;2023-01-08T04:20:09;6.78;;;3.55;;
26953;SDS011;14508;50.924;11.600;2023-01-08T04:22:38;5.90;;;3.53;;
26953;SDS011;14508;50.924;11.600;2023-01-08T04:25:06;5.85;;;3.80;;
26953;SDS011;14508;50.924;11.600;2023-01-08T04:27:34;7.15;;;4.28;;
26953;SDS011;14508;50.924;11.600;2023-01-08T04:30:02;9.43;;;4.15;;
26953;SDS011;14508;50.924;11.600;2023-01-08T04:32:30;8.27;;;3.42;;
26953;SDS011;14508;50.924;11.600;2023-01-08T04:34:59;5.93;;;3.70;;
26953;SDS011;14508;50.924;11.600;2023-01-08T04:37:28;5.57;;;3.38;;
26953;SDS011;14508;50.924;11.600;2023-01-08T04:39:55;8.13;;;3.78;;
26953;SDS011;14508;50.924;11.600;2023-01-08T04:42:23;6.55;;;3.50;;
26953;SDS011;14508;50.924;11.600;2023-01-08T04:44:51;6.35;;;3.45;;
26953;SDS011;14508;50.924;11.600;2023-01-08T04:47:19;8.55;;;3.30;;
26953;SDS011;14508;50.924;11.600;2023-01-08T04:49:47;5.95;;;3.47;;
26953;SDS011;14508;50.924;11.600;2023-01-08T04:52:16;5.45;;;3.25;;
26953;SDS011;14508;50.924;11.600;2023-01-08T04:54:44;5.85;;;3.42;;
26953;SDS011;14508;50.924;11.600;2023-01-08T04:57:11;5.35;;;3.40;;
26953;SDS011;14508;50.924;11.600;2023-01-08T04:59:39;6.43;;;2.90;;
26953;SDS011;14508;50.924;11.600;2023-01-08T05:02:07;4.30;;;3.17;;
26953;SDS011;14508;50.924;11.600;2023-01-08T05:04:35;6.03;;;3.22;;
26953;SDS011;14508;50.924;11.600;2023-01-08T05:07:03;5.97;;;3.25;;
26953;SDS011;14508;50.924;11.600;2023-01-08T05:09:34;6.32;;;3.45;;
26953;SDS011;14508;50.924;11.600;2023-01-08T05:12:02;5.50;;;3.72;;
26953;SDS011;14508;50.924;11.600;2023-01-08T05:14:30;7.43;;;3.50;;
26953;SDS011;14508;50.924;11.600;2023-01-08T05:16:58;7.57;;;3.97;;
26953;SDS011;14508;50.924;11.600;2023-01-08T05:19:26;7.13;;;3.75;;
26953;SDS011;14508;50.924;11.600;2023-01-08T05:21:54;7.47;;;4.10;;
26953;SDS011;14508;50.924;11.600;2023-01-08T05:24:23;5.57;;;3.45;;
26953;SDS011;14508;50.924;11.600;2023-01-08T05:26:52;5.88;;;3.05;;
26953;SDS011;14508;50.924;11.600;2023-01-08T05:29:20;5.43;;;3.22;;
26953;SDS011;14508;50.924;11.600;2023-01-08T05:31:48;5.60;;;2.85;;
26953;SDS011;14508;50.924;11.600;2023-01-08T05:34:16;8.95;;;3.20;;
26953;SDS011;14508;50.924;11.600;2023-01-08T05:36:43;4.57;;;3.00;;
26953;SDS011;14508;50.924;11.600;2023-01-08T05:39:11;5.00;;;3.25;;
26953;SDS011;14508;50.924;11.600;2023-01-08T05:41:39;5.18;;;2.80;;
26953;SDS011;14508;50.924;11.600;2023-01-08T05:44:09;9.07;;;3.38;;
26953;SDS011;14508;50.924;11.600;2023-01-08T05:46:37;9.98;;;3.10;;
26953;SDS011;14508;50.924;11.600;2023-01-08T05:49:05;5.07;;;2.95;;
26953;SDS011;14508;50.924;11.600;2023-01-08T05:51:33;4.13;;;2.70;;
26953;SDS011;14508;50.924;11.600;2023-01-08T05:54:01;6.35;;;3.22;;
26953;SDS011;14508;50.924;11.600;2023-01-08T05:56:29;8.68;;;3.00;;
26953;SDS011;14508;50.924;11.600;2023-01-08T05:58:56;6.20;;;2.75;;
26953;SDS011;14508;50.924;11.600;2023-01-08T06:01:26;5.40;;;3.17;;
26953;SDS011;14508;50.924;11.600;2023-01-08T06:03:54;5.78;;;3.03;;
26953;SDS011;14508;50.924;11.600;2023-01-08T06:06:22;5.57;;;3.10;;
26953;SDS011;14508;50.924;11.600;2023-01-08T06:08:50;4.70;;;2.95;;
26953;SDS011;14508;50.924;11.600;2023-01-08T06:11:17;5.10;;;3.45;;
26953;SDS011;14508;50.924;11.600;2023-01-08T06:13:45;6.57;;;3.67;;
26953;SDS011;14508;50.924;11.600;2023-01-08T06:16:13;5.18;;;3.25;;
26953;SDS011;14508;50.924;11.600;2023-01-08T06:18:44;4.30;;;3.03;;
26953;SDS011;14508;50.924;11.600;2023-01-08T06:21:11;6.95;;;3.53;;
26953;SDS011;14508;50.924;11.600;2023-01-08T06:23:39;8.23;;;3.20;;
26953;SDS011;14508;50.924;11.600;2023-01-08T06:26:07;8.05;;;3.40;;
26953;SDS011;14508;50.924;11.600;2023-01-08T06:28:35;8.00;;;3.75;;
26953;SDS011;14508;50.924;11.600;2023-01-08T06:31:03;7.40;;;3.25;;
26953;SDS011;14508;50.924;11.600;2023-01-08T06:33:31;6.10;;;3.60;;
26953;SDS011;14508;50.924;11.600;2023-01-08T06:36:01;5.03;;;2.92;;
26953;SDS011;14508;50.924;11.600;2023-01-08T06:38:30;4.65;;;2.92;;
26953;SDS011;14508;50.924;11.600;2023-01-08T06:41:01;8.93;;;3.60;;
26953;SDS011;14508;50.924;11.600;2023-01-08T06:43:30;7.80;;;3.50;;
26953;SDS011;14508;50.924;11.600;2023-01-08T06:46:01;5.80;;;3.53;;
26953;SDS011;14508;50.924;11.600;2023-01-08T06:48:30;9.60;;;3.67;;
26953;SDS011;14508;50.924;11.600;2023-01-08T06:50:58;5.93;;;3.40;;
26953;SDS011;14508;50.924;11.600;2023-01-08T06:53:27;5.53;;;3.80;;
26953;SDS011;14508;50.924;11.600;2023-01-08T06:55:55;6.63;;;3.78;;
26953;SDS011;14508;50.924;11.600;2023-01-08T06:58:24;5.88;;;3.63;;
26953;SDS011;14508;50.924;11.600;2023-01-08T07:00:52;6.85;;;3.60;;
26953;SDS011;14508;50.924;11.600;2023-01-08T07:03:20;6.00;;;3.38;;
26953;SDS011;14508;50.924;11.600;2023-01-08T07:05:48;12.73;;;3.47;;
26953;SDS011;14508;50.924;11.600;2023-01-08T07:08:17;3.72;;;2.97;;
26953;SDS011;14508;50.924;11.600;2023-01-08T07:10:46;4.72;;;3.00;;
26953;SDS011;14508;50.924;11.600;2023-01-08T07:13:14;5.30;;;3.70;;
26953;SDS011;14508;50.924;11.600;2023-01-08T07:15:42;5.80;;;3.53;;
26953;SDS011;14508;50.924;11.600;2023-01-08T07:18:10;5.90;;;3.50;;
26953;SDS011;14508;50.924;11.600;2023-01-08T07:20:38;5.95;;;3.63;;
26953;SDS011;14508;50.924;11.600;2023-01-08T07:23:08;5.00;;;3.63;;
26953;SDS011;14508;50.924;11.600;2023-01-08T07:25:37;6.15;;;3.55;;
26953;SDS011;14508;50.924;11.600;2023-01-08T07:28:08;6.82;;;3.55;;
26953;SDS011;14508;50.924;11.600;2023-01-08T07:30:37;6.07;;;3.40;;
26953;SDS011;14508;50.924;11.600;2023-01-08T07:33:05;8.25;;;3.47;;
26953;SDS011;14508;50.924;11.600;2023-01-08T07:35:33;5.25;;;3.63;;
26953;SDS011;14508;50.924;11.600;2023-01-08T07:38:02;6.72;;;3.53;;
26953;SDS011;14508;50.924;11.600;2023-01-08T07:40:30;12.60;;;4.40;;
26953;SDS011;14508;50.924;11.600;2023-01-08T07:42:58;8.05;;;3.30;;
26953;SDS011;14508;50.924;11.600;2023-01-08T07:45:28;5.38;;;3.47;;
26953;SDS011;14508;50.924;11.600;2023-01-08T07:47:57;6.50;;;4.15;;
26953;SDS011;14508;50.924;11.600;2023-01-08T07:50:25;8.00;;;4.03;;
26953;SDS011;14508;50.924;11.600;2023-01-08T07:52:55;5.15;;;3.30;;
26953;SDS011;14508;50.924;11.600;2023-01-08T07:55:24;12.43;;;4.20;;
26953;SDS011;14508;50.924;11.600;2023-01-08T07:57:53;7.20;;;3.40;;
26953;SDS011;14508;50.924;11.600;2023-01-08T08:00:21;9.15;;;3.35;;
26953;SDS011;14508;50.924;11.600;2023-01-08T08:02:50;6.07;;;3.40;;
26953;SDS011;14508;50.924;11.600;2023-01-08T08:05:18;9.93;;;3.60;;
26953;SDS011;14508;50.924;11.600;2023-01-08T08:07:46;8.38;;;3.17;;
26953;SDS011;14508;50.924;11.600;2023-01-08T08:10:14;6.22;;;3.90;;
26953;SDS011;14508;50.924;11.600;2023-01-08T08:12:43;7.22;;;4.50;;
26953;SDS011;14508;50.924;11.600;2023-01-08T08:15:11;6.53;;;3.83;;
26953;SDS011;14508;50.924;11.600;2023-01-08T08:17:40;6.00;;;3.33;;
26953;SDS011;14508;50.924;11.600;2023-01-08T08:20:12;6.80;;;3.72;;
26953;SDS011;14508;50.924;11.600;2023-01-08T08:22:40;19.83;;;8.90;;
26953;SDS011;14508;50.924;11.600;2023-01-08T08:25:08;11.25;;;5.55;;
26953;SDS011;14508;50.924;11.600;2023-01-08T08:27:36;8.57;;;3.83;;
26953;SDS011;14508;50.924;11.600;2023-01-08T08:30:04;6.10;;;4.13;;
26953;SDS011;14508;50.924;11.600;2023-01-08T08:32:33;6.30;;;3.97;;
26953;SDS011;14508;50.924;11.600;2023-01-08T08:35:01;9.10;;;3.72;;
26953;SDS011;14508;50.924;11.600;2023-01-08T08:37:31;9.68;;;3.13;;
26953;SDS011;14508;50.924;11.600;2023-01-08T08:39:59;6.63;;;3.30;;
26953;SDS011;14508;50.924;11.600;2023-01-08T08:42:27;8.40;;;4.32;;
26953;SDS011;14508;50.924;11.600;2023-01-08T08:44:55;6.57;;;3.65;;
26953;SDS011;14508;50.924;11.600;2023-01-08T08:47:23;10.02;;;6.50;;
26953;SDS011;14508;50.924;11.600;2023-01-08T08:49:51;34.83;;;16.20;;
26953;SDS011;14508;50.924;11.600;2023-01-08T08:52:19;68.30;;;27.05;;
26953;SDS011;14508;50.924;11.600;2023-01-08T08:54:48;23.73;;;10.27;;
26953;SDS011;14508;50.924;11.600;2023-01-08T08:57:16;15.38;;;8.23;;
26953;SDS011;14508;50.924;11.600;2023-01-08T08:59:44;21.35;;;9.43;;
26953;SDS011;14508;50.924;11.600;2023-01-08T09:02:12;9.20;;;5.45;;
26953;SDS011;14508;50.924;11.600;2023-01-08T09:04:40;11.35;;;4.43;;
26953;SDS011;14508;50.924;11.600;2023-01-08T09:07:08;11.93;;;4.65;;
26953;SDS011;14508;50.924;11.600;2023-01-08T09:09:36;8.15;;;4.13;;
26953;SDS011;14508;50.924;11.600;2023-01-08T09:12:05;6.88;;;3.75;;
26953;SDS011;14508;50.924;11.600;2023-01-08T09:14:33;6.85;;;4.55;;
26953;SDS011;14508;50.924;11.600;2023-01-08T09:17:01;8.23;;;4.45;;
26953;SDS011;14508;50.924;11.600;2023-01-08T09:19:29;5.82;;;3.72;;
26953;SDS011;14508;50.924;11.600;2023-01-08T09:21:57;8.45;;;3.78;;
26953;SDS011;14508;50.924;11.600;2023-01-08T09:24:25;6.57;;;4.07;;
26953;SDS011;14508;50.924;11.600;2023-01-08T09:26:53;6.88;;;4.40;;
26953;SDS011;14508;50.924;11.600;2023-01-08T09:29:22;6.55;;;4.00;;
26953;SDS011;14508;50.924;11.600;2023-01-08T09:31:50;11.75;;;5.60;;
26953;SDS011;14508;50.924;11.600;2023-01-08T09:34:17;9.32;;;4.88;;
26953;SDS011;14508;50.924;11.600;2023-01-08T09:36:45;7.65;;;4.07;;
26953;SDS011;14508;50.924;11.600;2023-01-08T09:39:13;9.77;;;4.22;;
26953;SDS011;14508;50.924;11.600;2023-01-08T09:41:41;7.10;;;4.18;;
26953;SDS011;14508;50.924;11.600;2023-01-08T09:44:13;10.23;;;4.55;;
26953;SDS011;14508;50.924;11.600;2023-01-08T09:46:44;7.07;;;4.20;;
26953;SDS011;14508;50.924;11.600;2023-01-08T09:49:14;6.80;;;3.95;;
26953;SDS011;14508;50.924;11.600;2023-01-08T09:51:47;9.65;;;4.80;;
26953;SDS011;14508;50.924;11.600;2023-01-08T09:54:15;14.73;;;4.97;;
26953;SDS011;14508;50.924;11.600;2023-01-08T09:56:44;8.05;;;4.38;;
26953;SDS011;14508;50.924;11.600;2023-01-08T09:59:15;8.93;;;3.88;;
26953;SDS011;14508;50.924;11.600;2023-01-08T10:01:45;14.38;;;3.97;;
26953;SDS011;14508;50.924;11.600;2023-01-08T10:04:15;8.85;;;5.07;;
26953;SDS011;14508;50.924;11.600;2023-01-08T10:06:46;12.52;;;5.15;;
26953;SDS011;14508;50.924;11.600;2023-01-08T10:09:18;6.70;;;3.95;;
26953;SDS011;14508;50.924;11.600;2023-01-08T10:11:50;9.02;;;4.88;;
26953;SDS011;14508;50.924;11.600;2023-01-08T10:14:21;8.45;;;4.60;;
26953;SDS011;14508;50.924;11.600;2023-01-08T10:16:54;11.48;;;5.28;;
26953;SDS011;14508;50.924;11.600;2023-01-08T10:19:24;8.05;;;4.47;;
26953;SDS011;14508;50.924;11.600;2023-01-08T10:21:52;7.22;;;4.20;;
26953;SDS011;14508;50.924;11.600;2023-01-08T10:24:29;7.80;;;4.25;;
26953;SDS011;14508;50.924;11.600;2023-01-08T10:27:05;6.00;;;3.72;;
26953;SDS011;14508;50.924;11.600;2023-01-08T10:29:35;7.72;;;4.60;;
26953;SDS011;14508;50.924;11.600;2023-01-08T10:32:08;8.43;;;4.70;;
26953;SDS011;14508;50.924;11.600;2023-01-08T10:34:40;9.70;;;4.80;;
26953;SDS011;14508;50.924;11.600;2023-01-08T10:37:14;10.38;;;4.03;;
26953;SDS011;14508;50.924;11.600;2023-01-08T10:39:48;6.80;;;3.45;;
26953;SDS011;14508;50.924;11.600;2023-01-08T10:42:18;5.70;;;3.65;;
26953;SDS011;14508;50.924;11.600;2023-01-08T10:44:52;5.63;;;3.97;;
26953;SDS011;14508;50.924;11.600;2023-01-08T10:47:25;5.72;;;3.33;;
26953;SDS011;14508;50.924;11.600;2023-01-08T10:49:55;5.15;;;3.40;;
26953;SDS011;14508;50.924;11.600;2023-01-08T10:52:27;7.50;;;4.18;;
26953;SDS011;14508;50.924;11.600;2023-01-08T10:55:09;5.07;;;3.38;;
26953;SDS011;14508;50.924;11.600;2023-01-08T10:57:39;5.97;;;4.07;;
26953;SDS011;14508;50.924;11.600;2023-01-08T11:00:21;9.80;;;3.95;;
26953;SDS011;14508;50.924;11.600;2023-01-08T11:02:51;11.23;;;3.92;;
26953;SDS011;14508;50.924;11.600;2023-01-08T11:05:27;5.40;;;2.78;;
26953;SDS011;14508;50.924;11.600;2023-01-08T11:07:56;5.32;;;2.80;;
26953;SDS011;14508;50.924;11.600;2023-01-08T11:10:26;8.70;;;2.92;;
26953;SDS011;14508;50.924;11.600;2023-01-08T11:12:55;6.22;;;3.53;;
26953;SDS011;14508;50.924;11.600;2023-01-08T11:15:27;4.57;;;3.10;;
26953;SDS011;14508;50.924;11.600;2023-01-08T11:20:48;4.97;;;2.78;;
26953;SDS011;14508;50.924;11.600;2023-01-08T11:23:17;4.22;;;2.70;;
26953;SDS011;14508;50.924;11.600;2023-01-08T11:25:49;5.47;;;3.40;;
26953;SDS011;14508;50.924;11.600;2023-01-08T11:28:23;11.82;;;3.33;;
26953;SDS011;14508;50.924;11.600;2023-01-08T11:30:58;4.82;;;3.00;;
26953;SDS011;14508;50.924;11.600;2023-01-08T11:33:37;9.32;;;3.25;;
26953;SDS011;14508;50.924;11.600;2023-01-08T11:36:09;5.72;;;3.15;;
26953;SDS011;14508;50.924;11.600;2023-01-08T11:38:45;5.45;;;3.55;;
26953;SDS011;14508;50.924;11.600;2023-01-08T11:41:20;9.48;;;3.60;;
26953;SDS011;14508;50.924;11.600;2023-01-08T11:44:11;5.10;;;3.47;;
26953;SDS011;14508;50.924;11.600;2023-01-08T11:46:46;9.73;;;3.28;;
26953;SDS011;14508;50.924;11.600;2023-01-08T11:49:33;5.22;;;3.20;;
26953;SDS011;14508;50.924;11.600;2023-01-08T11:52:20;6.05;;;3.17;;
26953;SDS011;14508;50.924;11.600;2023-01-08T11:55:02;8.48;;;3.05;;
26953;SDS011;14508;50.924;11.600;2023-01-08T11:57:44;6.90;;;3.33;;
26953;SDS011;14508;50.924;11.600;2023-01-08T12:00:31;6.20;;;3.45;;
26953;SDS011;14508;50.924;11.600;2023-01-08T12:03:10;4.32;;;3.38;;
26953;SDS011;14508;50.924;11.600;2023-01-08T12:05:54;5.57;;;3.58;;
26953;SDS011;14508;50.924;11.600;2023-01-08T12:08:31;7.75;;;3.22;;
26953;SDS011;14508;50.924;11.600;2023-01-08T12:11:06;5.93;;;3.00;;
26953;SDS011;14508;50.924;11.600;2023-01-08T12:13:47;6.20;;;3.17;;
26953;SDS011;14508;50.924;11.600;2023-01-08T12:16:27;7.05;;;3.40;;
26953;SDS011;14508;50.924;11.600;2023-01-08T12:19:16;6.13;;;2.85;;
26953;SDS011;14508;50.924;11.600;2023-01-08T12:22:03;6.07;;;3.47;;
26953;SDS011;14508;50.924;11.600;2023-01-08T12:24:58;6.32;;;3.58;;
26953;SDS011;14508;50.924;11.600;2023-01-08T12:27:49;6.25;;;3.28;;
26953;SDS011;14508;50.924;11.600;2023-01-08T12:30:29;4.82;;;3.22;;
26953;SDS011;14508;50.924;11.600;2023-01-08T12:33:10;5.28;;;2.92;;
26953;SDS011;14508;50.924;11.600;2023-01-08T12:35:42;6.88;;;3.25;;
26953;SDS011;14508;50.924;11.600;2023-01-08T12:38:17;7.10;;;2.78;;
26953;SDS011;14508;50.924;11.600;2023-01-08T12:40:49;4.85;;;3.05;;
26953;SDS011;14508;50.924;11.600;2023-01-08T12:43:23;7.63;;;3.08;;
26953;SDS011;14508;50.924;11.600;2023-01-08T12:45:55;5.57;;;3.10;;
26953;SDS011;14508;50.924;11.600;2023-01-08T12:48:28;7.82;;;3.00;;
26953;SDS011;14508;50.924;11.600;2023-01-08T12:51:00;5.50;;;3.28;;
26953;SDS011;14508;50.924;11.600;2023-01-08T12:53:38;9.43;;;3.03;;
26953;SDS011;14508;50.924;11.600;2023-01-08T12:56:11;4.57;;;3.22;;
26953;SDS011;14508;50.924;11.600;2023-01-08T12:58:53;5.20;;;2.85;;
26953;SDS011;14508;50.924;11.600;2023-01-08T13:01:35;4.05;;;2.55;;
26953;SDS011;14508;50.924;11.600;2023-01-08T13:04:09;4.68;;;2.90;;
26953;SDS011;14508;50.924;11.600;2023-01-08T13:06:47;5.65;;;3.00;;
26953;SDS011;14508;50.924;11.600;2023-01-08T13:09:19;4.63;;;2.50;;
26953;SDS011;14508;50.924;11.600;2023-01-08T13:11:50;3.13;;;2.22;;
26953;SDS011;14508;50.924;11.600;2023-01-08T13:14:19;5.63;;;2.15;;
26953;SDS011;14508;50.924;11.600;2023-01-08T13:16:47;6.00;;;2.28;;
26953;SDS011;14508;50.924;11.600;2023-01-08T13:22:02;7.37;;;2.40;;
26953;SDS011;14508;50.924;11.600;2023-01-08T13:24:32;4.85;;;2.30;;
26953;SDS011;14508;50.924;11.600;2023-01-08T13:27:09;2.58;;;2.03;;
26953;SDS011;14508;50.924;11.600;2023-01-08T13:29:39;4.72;;;2.47;;
26953;SDS011;14508;50.924;11.600;2023-01-08T13:32:21;9.35;;;2.20;;
26953;SDS011;14508;50.924;11.600;2023-01-08T13:35:01;3.38;;;1.88;;
26953;SDS011;14508;50.924;11.600;2023-01-08T13:37:44;3.70;;;1.90;;
26953;SDS011;14508;50.924;11.600;2023-01-08T13:43:09;3.50;;;1.80;;
26953;SDS011;14508;50.924;11.600;2023-01-08T13:45:40;4.60;;;2.30;;
26953;SDS011;14508;50.924;11.600;2023-01-08T13:48:18;2.70;;;1.65;;
26953;SDS011;14508;50.924;11.600;2023-01-08T13:50:48;4.22;;;1.50;;
26953;SDS011;14508;50.924;11.600;2023-01-08T13:53:16;2.67;;;1.88;;
26953;SDS011;14508;50.924;11.600;2023-01-08T13:55:51;4.03;;;1.35;;
26953;SDS011;14508;50.924;11.600;2023-01-08T13:58:23;1.60;;;1.27;;
26953;SDS011;14508;50.924;11.600;2023-01-08T14:00:56;4.82;;;1.60;;
26953;SDS011;14508;50.924;11.600;2023-01-08T14:03:26;3.45;;;1.73;;
26953;SDS011;14508;50.924;11.600;2023-01-08T14:06:03;2.67;;;1.25;;
26953;SDS011;14508;50.924;11.600;2023-01-08T14:08:37;4.13;;;1.38;;
26953;SDS011;14508;50.924;11.600;2023-01-08T14:11:17;4.85;;;1.63;;
26953;SDS011;14508;50.924;11.600;2023-01-08T14:13:48;2.55;;;1.45;;
26953;SDS011;14508;50.924;11.600;2023-01-08T14:16:17;3.05;;;1.30;;
26953;SDS011;14508;50.924;11.600;2023-01-08T14:18:46;5.78;;;1.70;;
26953;SDS011;14508;50.924;11.600;2023-01-08T14:21:15;1.27;;;1.13;;
26953;SDS011;14508;50.924;11.600;2023-01-08T14:23:48;2.53;;;1.58;;
26953;SDS011;14508;50.924;11.600;2023-01-08T14:26:22;5.50;;;1.30;;
26953;SDS011;14508;50.924;11.600;2023-01-08T14:28:54;1.67;;;1.17;;
26953;SDS011;14508;50.924;11.600;2023-01-08T14:31:23;2.20;;;1.50;;
26953;SDS011;14508;50.924;11.600;2023-01-08T14:33:53;2.35;;;1.17;;
26953;SDS011;14508;50.924;11.600;2023-01-08T14:36:23;2.05;;;1.52;;
26953;SDS011;14508;50.924;11.600;2023-01-08T14:38:51;1.65;;;1.20;;
26953;SDS011;14508;50.924;11.600;2023-01-08T14:41:22;1.80;;;1.23;;
26953;SDS011;14508;50.924;11.600;2023-01-08T14:44:17;1.95;;;1.35;;
26953;SDS011;14508;50.924;11.600;2023-01-08T14:47:01;2.10;;;1.55;;
26953;SDS011;14508;50.924;11.600;2023-01-08T14:49:30;1.98;;;1.40;;
26953;SDS011;14508;50.924;11.600;2023-01-08T14:52:07;3.90;;;1.30;;
26953;SDS011;14508;50.924;11.600;2023-01-08T14:54:38;2.22;;;1.50;;
26953;SDS011;14508;50.924;11.600;2023-01-08T14:57:10;4.45;;;1.50;;
26953;SDS011;14508;50.924;11.600;2023-01-08T14:59:38;2.53;;;1.50;;
26953;SDS011;14508;50.924;11.600;2023-01-08T15:02:11;3.17;;;1.30;;
26953;SDS011;14508;50.924;11.600;2023-01-08T15:04:48;1.73;;;1.10;;